createdAt,value
2022-12-20T05:05:17.770Z,67.09
2022-12-20T05:07:45.335Z,65.75
2022-12-20T05:10:12.543Z,64.48
2022-12-20T05:12:39.957Z,64.60
2022-12-20T05:15:07.808Z,64.00
2022-12-20T05:17:35.728Z,63.66
2022-12-20T05:20:03.039Z,63.67
2022-12-20T05:22:49.125Z,63.07
2022-12-20T05:25:34.765Z,63.69
2022-12-20T05:28:02.664Z,64.38
2022-12-20T05:30:30.077Z,64.21
2022-12-20T05:32:58.730Z,63.04
2022-12-20T05:35:25.902Z,64.50
2022-12-20T05:37:53.620Z,62.94
2022-12-20T05:40:20.692Z,63.43
2022-12-20T05:42:48.201Z,63.17
2022-12-20T05:45:15.294Z,64.14
2022-12-20T05:47:42.714Z,64.95
2022-12-20T05:50:16.645Z,64.46
2022-12-20T05:52:46.364Z,65.35
2022-12-20T05:55:13.953Z,64.52
2022-12-20T05:57:41.468Z,63.22
2022-12-20T06:00:09.722Z,63.38
2022-12-20T06:02:37.405Z,64.82
2022-12-20T06:05:05.244Z,65.92
2022-12-20T06:07:32.749Z,65.02
2022-12-20T06:10:00.007Z,64.79
2022-12-20T06:12:27.455Z,65.93
2022-12-20T06:14:54.605Z,66.31
2022-12-20T06:17:22.175Z,66.84
2022-12-20T06:19:49.329Z,66.47
2022-12-20T06:22:16.766Z,65.23
2022-12-20T06:24:48.243Z,63.74
2022-12-20T06:27:16.337Z,62.83
2022-12-20T06:29:49.635Z,61.57
2022-12-20T06:32:17.040Z,61.39
2022-12-20T06:34:44.201Z,60.68
2022-12-20T06:37:11.966Z,60.92
2022-12-20T06:39:39.069Z,61.60
2022-12-20T06:42:07.228Z,62.57
2022-12-20T06:44:34.343Z,62.26
2022-12-20T06:47:02.750Z,61.96
2022-12-20T06:49:30.263Z,61.36
2022-12-20T06:51:57.967Z,60.89
2022-12-20T06:54:25.097Z,60.23
2022-12-20T06:56:52.711Z,59.29
2022-12-20T06:59:20.007Z,58.72
2022-12-20T07:01:47.592Z,57.93
2022-12-20T07:04:14.855Z,58.10
2022-12-20T07:06:42.366Z,58.23
2022-12-20T07:09:09.763Z,59.03
2022-12-20T07:11:38.310Z,58.16
2022-12-20T07:14:05.414Z,57.97
2022-12-20T07:16:33.036Z,59.62
2022-12-20T07:19:00.187Z,59.25
2022-12-20T07:21:28.172Z,57.97
2022-12-20T07:23:56.084Z,58.76
2022-12-20T07:26:23.553Z,58.28
2022-12-20T07:28:50.631Z,57.86
2022-12-20T07:31:18.328Z,57.90
2022-12-20T07:33:45.472Z,60.84
2022-12-20T07:36:16.133Z,64.50
2022-12-20T07:38:43.348Z,64.67
2022-12-20T07:41:16.993Z,62.22
2022-12-20T07:43:44.228Z,59.63
2022-12-20T07:46:14.653Z,58.85
2022-12-20T07:48:42.212Z,58.80
2022-12-20T07:51:18.398Z,57.71
2022-12-20T07:53:50.475Z,57.57
2022-12-20T07:56:21.212Z,57.78
2022-12-20T07:58:51.286Z,61.90
2022-12-20T08:01:20.155Z,59.89
2022-12-20T08:03:51.715Z,58.11
2022-12-20T08:06:19.857Z,56.75
2022-12-20T08:08:51.913Z,56.23
2022-12-20T08:11:22.864Z,55.76
2022-12-20T08:13:57.451Z,55.79
2022-12-20T08:16:26.652Z,55.47
2022-12-20T08:18:53.947Z,55.03
2022-12-20T08:21:21.467Z,55.37
2022-12-20T08:23:48.858Z,54.52
2022-12-20T08:26:16.681Z,54.19
2022-12-20T08:28:43.904Z,56.08
2022-12-20T08:31:13.099Z,57.21
2022-12-20T08:33:41.084Z,59.15
2022-12-20T08:36:12.317Z,60.27
2022-12-20T08:38:40.317Z,61.40
2022-12-20T08:41:11.937Z,60.11
2022-12-20T08:43:40.221Z,59.46
2022-12-20T08:46:09.892Z,57.29
2022-12-20T08:48:37.259Z,57.17
2022-12-20T08:51:08.173Z,56.83
2022-12-20T08:53:36.588Z,56.73
2022-12-20T08:56:13.811Z,59.41
2022-12-20T08:58:42.119Z,59.71
2022-12-20T09:01:13.220Z,59.11
2022-12-20T09:03:41.135Z,59.08
2022-12-20T09:06:12.618Z,59.39
2022-12-20T09:08:40.761Z,60.63
2022-12-20T09:11:20.531Z,62.38
2022-12-20T09:13:49.930Z,62.92
2022-12-20T09:16:21.852Z,63.84
2022-12-20T09:18:50.742Z,65.70
2022-12-20T09:21:19.708Z,66.33
2022-12-20T09:23:47.060Z,64.93
2022-12-20T09:26:16.219Z,63.76
2022-12-20T09:28:44.626Z,62.77
2022-12-20T09:31:24.241Z,60.88
2022-12-20T09:33:55.290Z,59.08
2022-12-20T09:36:24.906Z,58.93
2022-12-20T09:38:52.740Z,58.18
2022-12-20T09:41:30.315Z,57.37
2022-12-20T09:44:00.496Z,57.43
2022-12-20T09:46:28.544Z,57.74
2022-12-20T09:48:57.668Z,55.75
2022-12-20T09:51:47.826Z,58.45
2022-12-20T09:54:31.832Z,60.27
2022-12-20T09:57:05.548Z,60.48
2022-12-20T09:59:39.763Z,57.99
2022-12-20T10:02:44.510Z,57.53
2022-12-20T10:05:00.368Z,58.91
2022-12-20T10:07:42.287Z,56.53
2022-12-20T10:10:34.470Z,56.51
2022-12-20T10:13:33.325Z,55.70
2022-12-20T10:16:33.955Z,55.09
2022-12-20T10:19:11.866Z,52.28
2022-12-20T10:22:05.321Z,51.43
2022-12-20T10:24:35.029Z,50.84
2022-12-20T10:27:14.693Z,49.34
2022-12-20T10:29:43.347Z,48.43
2022-12-20T10:32:14.531Z,47.38
2022-12-20T10:34:52.131Z,47.12
2022-12-20T10:37:19.235Z,47.62
2022-12-20T10:39:52.184Z,48.12
2022-12-20T10:42:38.878Z,46.83
2022-12-20T10:45:18.602Z,45.70
2022-12-20T10:47:48.728Z,46.39
2022-12-20T10:50:20.471Z,47.24
2022-12-20T10:53:19.788Z,49.39
2022-12-20T10:55:47.877Z,50.33
2022-12-20T10:58:18.052Z,50.41
2022-12-20T11:00:45.931Z,51.14
2022-12-20T11:03:21.301Z,51.12
2022-12-20T11:06:04.813Z,51.77
2022-12-20T11:08:39.216Z,54.64
2022-12-20T11:11:14.787Z,54.29
2022-12-20T11:13:42.752Z,52.32
2022-12-20T11:16:37.126Z,50.88
2022-12-20T11:19:19.207Z,49.85
2022-12-20T11:22:13.322Z,49.06
2022-12-20T11:24:55.463Z,50.02
2022-12-20T11:27:57.130Z,52.09
2022-12-20T11:30:31.293Z,53.35
2022-12-20T11:33:36.161Z,52.94
2022-12-20T11:36:11.626Z,54.69
2022-12-20T11:38:47.289Z,55.14
2022-12-20T11:41:24.868Z,55.21
2022-12-20T11:44:23.899Z,56.59
2022-12-20T11:47:20.444Z,57.48
2022-12-20T11:50:03.340Z,58.28
2022-12-20T11:52:58.808Z,58.49
2022-12-20T11:55:40.034Z,60.38
2022-12-20T11:58:19.116Z,59.28
2022-12-20T12:01:09.964Z,57.59
2022-12-20T12:03:52.848Z,60.27
2022-12-20T12:06:33.202Z,59.65
2022-12-20T12:09:23.865Z,60.58
2022-12-20T12:12:07.867Z,59.18
2022-12-20T12:15:09.856Z,58.82
2022-12-20T12:17:48.574Z,57.50
2022-12-20T12:20:34.673Z,58.38
2022-12-20T12:23:27.848Z,59.66
2022-12-20T12:25:58.493Z,60.35
2022-12-20T12:28:26.135Z,61.70
2022-12-20T12:31:11.886Z,60.87
2022-12-20T12:33:50.911Z,62.35
2022-12-20T12:36:43.269Z,63.12
2022-12-20T12:39:33.769Z,64.47
2022-12-20T12:42:09.935Z,63.36
2022-12-20T12:44:46.526Z,64.61
2022-12-20T12:47:23.033Z,62.39
2022-12-20T12:49:53.225Z,61.39
2022-12-20T12:52:43.363Z,59.47
2022-12-20T12:55:37.296Z,57.81
2022-12-20T12:58:22.908Z,59.08
2022-12-20T13:00:54.877Z,57.68
2022-12-20T13:03:41.989Z,58.21
2022-12-20T13:06:28.515Z,55.59
2022-12-20T13:08:58.710Z,54.34
2022-12-20T13:11:47.837Z,52.85
2022-12-20T13:14:19.148Z,51.61
2022-12-20T13:17:11.515Z,50.91
2022-12-20T13:19:38.860Z,51.71
2022-12-20T13:22:06.442Z,52.27
2022-12-20T13:24:50.669Z,56.10
2022-12-20T13:27:52.094Z,59.26
2022-12-20T13:30:19.170Z,60.63
2022-12-20T13:32:49.494Z,61.42
2022-12-20T13:35:25.992Z,62.18
2022-12-20T13:37:55.099Z,63.26
2022-12-20T13:40:44.177Z,61.09
2022-12-20T13:43:22.015Z,60.95
2022-12-20T13:46:03.311Z,60.15
2022-12-20T13:48:47.260Z,60.23
2022-12-20T13:51:22.454Z,59.53
2022-12-20T13:53:56.280Z,58.96
2022-12-20T13:56:33.618Z,59.34
2022-12-20T13:59:32.346Z,59.39
2022-12-20T14:02:04.678Z,58.53
2022-12-20T14:04:43.769Z,61.06
2022-12-20T14:07:16.812Z,62.89
2022-12-20T14:09:47.437Z,62.61
2022-12-20T14:12:25.252Z,61.79
2022-12-20T14:14:55.986Z,60.52
2022-12-20T14:17:26.633Z,61.01
2022-12-20T14:20:12.725Z,62.85
2022-12-20T14:23:05.041Z,61.80
2022-12-20T14:25:55.840Z,63.68
2022-12-20T14:28:30.438Z,62.28
2022-12-20T14:31:01.510Z,61.07
2022-12-20T14:33:38.438Z,63.20
2022-12-20T14:36:20.832Z,62.00
2022-12-20T14:38:52.887Z,63.49
2022-12-20T14:41:31.982Z,64.52
2022-12-20T14:44:04.495Z,64.04
2022-12-20T14:46:32.379Z,61.87
2022-12-20T14:49:30.621Z,61.67
2022-12-20T14:52:15.709Z,62.04
2022-12-20T14:55:10.346Z,64.66
2022-12-20T14:57:44.626Z,63.81
2022-12-20T15:00:21.523Z,64.28
2022-12-20T15:03:01.199Z,66.37
2022-12-20T15:05:36.713Z,68.85
2022-12-20T15:08:13.968Z,69.58
2022-12-20T15:11:03.930Z,69.51
2022-12-20T15:13:39.800Z,67.33
2022-12-20T15:16:18.834Z,65.97
2022-12-20T15:18:51.787Z,68.08
2022-12-20T15:21:45.425Z,65.81
2022-12-20T15:24:19.976Z,66.30
2022-12-20T15:26:47.336Z,65.06
2022-12-20T15:29:26.063Z,63.55
2022-12-20T15:32:25.904Z,61.58
2022-12-20T15:34:53.572Z,59.88
2022-12-20T15:37:22.239Z,58.11
2022-12-20T15:39:53.023Z,57.06
2022-12-20T15:42:21.321Z,56.82
2022-12-20T15:44:50.589Z,57.67
2022-12-20T15:47:17.755Z,59.48
2022-12-20T15:49:50.166Z,61.27
2022-12-20T15:52:23.263Z,63.42
2022-12-20T15:54:51.195Z,65.27
2022-12-20T15:57:21.088Z,64.77
2022-12-20T16:00:00.575Z,62.52
2022-12-20T16:02:31.489Z,62.49
2022-12-20T16:04:59.765Z,61.14
2022-12-20T16:07:27.501Z,62.69
2022-12-20T16:09:55.282Z,63.50
2022-12-20T16:12:32.971Z,63.08
2022-12-20T16:15:00.771Z,62.69
2022-12-20T16:17:27.991Z,64.66
2022-12-20T16:19:55.865Z,66.15
2022-12-20T16:22:24.467Z,67.48
2022-12-20T16:24:52.579Z,66.27
2022-12-20T16:27:20.611Z,66.29
2022-12-20T16:29:48.286Z,65.31
2022-12-20T16:32:17.444Z,64.62
2022-12-20T16:34:45.742Z,64.08
2022-12-20T16:37:13.898Z,65.43
2022-12-20T16:39:42.475Z,64.30
2022-12-20T16:42:17.774Z,64.60
2022-12-20T16:44:46.332Z,63.39
2022-12-20T16:47:14.825Z,64.26
2022-12-20T16:49:52.399Z,65.19
2022-12-20T16:52:22.433Z,63.62
2022-12-20T16:54:51.070Z,62.53
2022-12-20T16:57:20.041Z,61.40
2022-12-20T16:59:47.742Z,59.55
2022-12-20T17:02:32.077Z,59.14
2022-12-20T17:05:00.589Z,59.08
2022-12-20T17:07:27.889Z,59.45
2022-12-20T17:09:55.576Z,60.28
2022-12-20T17:12:23.575Z,58.85
2022-12-20T17:14:52.732Z,57.82
2022-12-20T17:17:20.674Z,60.07
2022-12-20T17:19:48.402Z,58.94
2022-12-20T17:24:59.800Z,57.95
2022-12-20T17:27:27.128Z,57.50
2022-12-20T17:29:55.091Z,58.07
2022-12-20T17:32:26.034Z,56.73
2022-12-20T17:34:53.930Z,56.85
2022-12-20T17:37:21.747Z,57.86
2022-12-20T17:39:49.579Z,60.35
2022-12-20T17:42:17.261Z,62.63
2022-12-20T17:44:46.596Z,61.56
2022-12-20T17:47:14.108Z,62.41
2022-12-20T17:49:41.673Z,62.35
2022-12-20T17:52:15.184Z,62.19
2022-12-20T17:54:43.354Z,64.06
2022-12-20T17:57:21.129Z,64.27
2022-12-20T17:59:53.026Z,65.20
2022-12-20T18:02:21.028Z,66.00
2022-12-20T18:04:49.579Z,66.64
2022-12-20T18:07:17.149Z,66.94
2022-12-20T18:10:01.967Z,68.52
2022-12-20T18:12:34.105Z,66.10
2022-12-20T18:15:07.640Z,65.13
2022-12-20T18:17:34.987Z,66.15
2022-12-20T18:20:02.560Z,65.46
2022-12-20T18:22:29.732Z,63.84
2022-12-20T18:24:57.351Z,62.79
2022-12-20T18:27:30.365Z,60.75
2022-12-20T18:29:59.066Z,59.54
2022-12-20T18:32:28.066Z,58.36
2022-12-20T18:34:56.300Z,57.41
2022-12-20T18:37:23.863Z,56.85
2022-12-20T18:39:59.391Z,56.98
2022-12-20T18:42:28.068Z,56.21
2022-12-20T18:44:55.749Z,57.06
2022-12-20T18:47:26.162Z,59.56
2022-12-20T18:49:54.687Z,62.14
2022-12-20T18:52:22.041Z,61.45
2022-12-20T18:54:49.826Z,62.31
2022-12-20T18:57:17.951Z,64.12
2022-12-20T18:59:51.539Z,62.17
2022-12-20T19:02:20.287Z,61.31
2022-12-20T19:04:48.057Z,60.54
2022-12-20T19:07:18.988Z,62.43
2022-12-20T19:09:49.036Z,63.42
2022-12-20T19:12:16.317Z,64.41
2022-12-20T19:14:43.920Z,64.63
2022-12-20T19:17:11.688Z,64.71
2022-12-20T19:19:44.701Z,65.01
2022-12-20T19:22:12.181Z,64.13
2022-12-20T19:24:43.169Z,64.29
2022-12-20T19:27:13.434Z,63.68
2022-12-20T19:29:41.298Z,62.45
2022-12-20T19:32:08.590Z,62.01
2022-12-20T19:34:39.126Z,62.05
2022-12-20T19:37:06.581Z,61.16
2022-12-20T19:39:34.319Z,61.23
2022-12-20T19:42:23.678Z,60.92
2022-12-20T19:44:49.183Z,59.66
2022-12-20T19:47:16.361Z,59.11
2022-12-20T19:49:43.873Z,58.96
2022-12-20T19:52:11.525Z,58.12
2022-12-20T19:54:40.059Z,57.85
2022-12-20T19:57:07.617Z,58.39
2022-12-20T19:59:36.145Z,60.18
2022-12-20T20:02:03.689Z,62.16
2022-12-20T20:04:31.568Z,64.39
2022-12-20T20:06:59.901Z,63.75
2022-12-20T20:09:30.469Z,64.39
2022-12-20T20:11:58.180Z,65.20
2022-12-20T20:14:27.003Z,67.06
2022-12-20T20:16:54.443Z,66.06
2022-12-20T20:19:22.146Z,64.31
2022-12-20T20:21:49.680Z,62.75
2022-12-20T20:24:17.228Z,61.79
2022-12-20T20:26:47.667Z,60.25
2022-12-20T20:29:15.396Z,59.28
2022-12-20T20:31:42.639Z,58.52
2022-12-20T20:34:10.306Z,57.87
2022-12-20T20:36:37.619Z,58.33
2022-12-20T20:39:05.249Z,57.72
2022-12-20T20:41:33.111Z,57.38
2022-12-20T20:44:01.194Z,57.94
2022-12-20T20:46:28.523Z,57.92
2022-12-20T20:48:59.237Z,57.83
2022-12-20T20:51:26.649Z,58.05
2022-12-20T20:53:57.098Z,57.96
2022-12-20T20:56:24.312Z,56.98
2022-12-20T20:58:55.243Z,57.58
2022-12-20T21:01:25.080Z,57.18
2022-12-20T21:03:52.800Z,57.05
2022-12-20T21:06:39.116Z,56.94
2022-12-20T21:09:07.938Z,56.79
2022-12-20T21:11:37.207Z,56.63
2022-12-20T21:14:05.423Z,58.98
2022-12-20T21:16:32.706Z,58.71
2022-12-20T21:19:00.397Z,57.87
2022-12-20T21:21:28.390Z,56.65
2022-12-20T21:23:56.369Z,56.31
2022-12-20T21:26:25.527Z,55.82
2022-12-20T21:29:00.406Z,56.48
2022-12-20T21:31:28.379Z,58.78
2022-12-20T21:33:56.927Z,57.49
2022-12-20T21:36:24.978Z,56.61
2022-12-20T21:38:55.904Z,55.17
2022-12-20T21:41:25.260Z,55.94
2022-12-20T21:43:56.974Z,56.31
2022-12-20T21:46:24.810Z,56.00
2022-12-20T21:48:55.666Z,60.00
2022-12-20T21:51:24.463Z,64.05
2022-12-20T21:53:55.059Z,58.95
2022-12-20T21:56:24.099Z,57.49
2022-12-20T21:58:52.058Z,56.22
2022-12-20T22:01:22.103Z,55.72
2022-12-20T22:03:51.902Z,55.67
2022-12-20T22:06:20.089Z,55.26
2022-12-20T22:08:47.854Z,55.11
2022-12-20T22:11:17.180Z,54.51
2022-12-20T22:13:44.944Z,55.53
2022-12-20T22:16:15.824Z,55.53
2022-12-20T22:18:44.989Z,61.27
2022-12-20T22:21:14.437Z,61.94
2022-12-20T22:23:42.958Z,60.48
2022-12-20T22:26:13.388Z,65.07
2022-12-20T22:28:49.133Z,62.73
2022-12-20T22:31:16.658Z,65.20
2022-12-20T22:33:45.010Z,60.02
2022-12-20T22:36:15.184Z,57.31
2022-12-20T22:38:43.658Z,56.20
2022-12-20T22:41:16.392Z,54.94
2022-12-20T22:43:45.879Z,57.78
2022-12-20T22:48:56.697Z,57.46
2022-12-20T22:51:27.871Z,55.63
2022-12-20T22:53:57.599Z,55.36
2022-12-20T22:56:24.812Z,54.82
2022-12-20T22:58:52.282Z,55.15
2022-12-20T23:01:20.685Z,55.58
2022-12-20T23:03:48.767Z,57.14
2022-12-20T23:06:18.939Z,56.36
2022-12-20T23:08:47.788Z,55.83
2022-12-20T23:11:42.021Z,55.17
2022-12-20T23:14:34.253Z,55.18
2022-12-20T23:17:01.735Z,57.09
2022-12-20T23:19:49.513Z,55.60
2022-12-20T23:22:35.234Z,55.29
2022-12-20T23:25:03.115Z,56.70
2022-12-20T23:27:30.405Z,58.41
2022-12-20T23:29:58.066Z,57.56
2022-12-20T23:32:25.287Z,57.62
2022-12-20T23:34:53.113Z,58.53
2022-12-20T23:37:20.217Z,58.49
2022-12-20T23:39:47.746Z,58.68
2022-12-20T23:42:14.972Z,59.75
2022-12-20T23:44:42.378Z,60.56
2022-12-20T23:47:11.952Z,60.29
2022-12-20T23:49:43.243Z,63.73
2022-12-20T23:52:10.610Z,65.76
2022-12-20T23:54:38.212Z,67.22
2022-12-20T23:57:05.424Z,65.51
2022-12-20T23:59:32.994Z,66.05
